createdAt,value
2018-11-23T00:00:27.646Z,17.80
2018-11-23T00:02:57.236Z,17.37
2018-11-23T00:05:26.143Z,17.67
2018-11-23T00:07:55.597Z,17.83
2018-11-23T00:10:25.723Z,17.07
2018-11-23T00:12:54.553Z,17.83
2018-11-23T00:15:24.468Z,18.33
2018-11-23T00:17:53.381Z,17.60
2018-11-23T00:20:23.705Z,18.07
2018-11-23T00:22:53.598Z,16.80
2018-11-23T00:25:23.928Z,16.87
2018-11-23T00:27:53.129Z,16.40
2018-11-23T00:30:23.432Z,17.20
2018-11-23T00:32:52.894Z,16.70
2018-11-23T00:35:23.977Z,16.93
2018-11-23T00:37:53.405Z,16.83
2018-11-23T00:40:24.472Z,17.17
2018-11-23T00:42:53.474Z,17.20
2018-11-23T00:45:22.675Z,17.17
2018-11-23T00:47:52.263Z,16.17
2018-11-23T00:50:22.159Z,16.97
2018-11-23T00:52:51.609Z,18.27
2018-11-23T00:55:22.616Z,16.53
2018-11-23T00:57:51.463Z,16.87
2018-11-23T01:00:25.131Z,17.23
2018-11-23T01:02:54.550Z,17.23
2018-11-23T01:05:23.732Z,17.50
2018-11-23T01:07:52.865Z,16.80
2018-11-23T01:10:23.386Z,17.10
2018-11-23T01:12:53.560Z,17.77
2018-11-23T01:15:22.679Z,18.17
2018-11-23T01:17:51.670Z,16.83
2018-11-23T01:20:21.802Z,17.70
2018-11-23T01:22:50.942Z,16.93
2018-11-23T01:25:20.455Z,16.27
2018-11-23T01:27:50.257Z,17.17
2018-11-23T01:30:20.447Z,15.73
2018-11-23T01:32:49.026Z,17.27
2018-11-23T01:35:20.309Z,18.43
2018-11-23T01:37:48.949Z,17.27
2018-11-23T01:40:20.185Z,17.37
2018-11-23T01:42:48.820Z,16.23
2018-11-23T01:45:17.492Z,17.07
2018-11-23T01:47:46.130Z,16.23
2018-11-23T01:50:16.203Z,16.17
2018-11-23T01:52:46.021Z,17.93
2018-11-23T01:55:15.167Z,16.17
2018-11-23T01:57:44.135Z,17.03
2018-11-23T02:00:14.409Z,16.53
2018-11-23T02:02:43.273Z,17.33
2018-11-23T02:05:11.935Z,16.57
2018-11-23T02:07:40.495Z,17.20
2018-11-23T02:10:09.432Z,16.47
2018-11-23T02:12:38.020Z,16.03
2018-11-23T02:15:08.445Z,16.60
2018-11-23T02:17:37.565Z,16.33
2018-11-23T02:20:07.425Z,16.07
2018-11-23T02:22:35.954Z,16.47
2018-11-23T02:25:04.698Z,16.30
2018-11-23T02:27:33.485Z,17.03
2018-11-23T02:30:02.019Z,16.27
2018-11-23T02:32:30.625Z,17.47
2018-11-23T02:34:59.200Z,16.30
2018-11-23T02:37:27.760Z,16.67
2018-11-23T02:39:56.326Z,16.23
2018-11-23T02:42:24.830Z,16.90
2018-11-23T02:44:53.392Z,17.07
2018-11-23T02:47:21.900Z,17.10
2018-11-23T02:49:50.496Z,16.73
2018-11-23T02:52:19.046Z,17.00
2018-11-23T02:54:47.534Z,16.77
2018-11-23T02:57:17.090Z,16.37
2018-11-23T02:59:45.629Z,16.37
2018-11-23T03:02:14.195Z,16.83
2018-11-23T03:04:42.692Z,16.73
2018-11-23T03:07:11.262Z,17.00
2018-11-23T03:09:39.724Z,16.20
2018-11-23T03:12:08.303Z,15.80
2018-11-23T03:14:36.789Z,16.23
2018-11-23T03:17:05.392Z,16.80
2018-11-23T03:19:33.916Z,17.00
2018-11-23T03:22:02.510Z,16.47
2018-11-23T03:24:31.658Z,17.20
2018-11-23T03:27:00.278Z,16.30
2018-11-23T03:29:28.799Z,16.30
2018-11-23T03:31:57.335Z,16.47
2018-11-23T03:34:25.889Z,17.03
2018-11-23T03:37:01.190Z,16.47
2018-11-23T03:39:34.078Z,15.43
2018-11-23T03:41:58.183Z,16.83
2018-11-23T03:44:26.729Z,17.03
2018-11-23T03:46:55.229Z,17.17
2018-11-23T03:49:23.867Z,16.37
2018-11-23T03:51:52.347Z,17.83
2018-11-23T03:54:20.941Z,17.73
2018-11-23T03:56:49.480Z,17.70
2018-11-23T03:59:17.956Z,17.57
2018-11-23T04:01:46.443Z,17.07
2018-11-23T04:04:15.961Z,17.00
2018-11-23T04:06:44.580Z,15.67
2018-11-23T04:09:13.095Z,17.43
2018-11-23T04:11:41.740Z,17.20
2018-11-23T04:14:10.287Z,16.57
2018-11-23T04:16:38.760Z,18.10
2018-11-23T04:19:07.332Z,17.27
2018-11-23T04:21:35.819Z,16.80
2018-11-23T04:24:04.257Z,16.43
2018-11-23T04:26:32.845Z,16.30
2018-11-23T04:29:01.290Z,16.50
2018-11-23T04:31:29.755Z,17.20
2018-11-23T04:33:58.188Z,17.07
2018-11-23T04:36:26.624Z,16.50
2018-11-23T04:38:55.063Z,18.17
2018-11-23T04:41:23.531Z,16.63
2018-11-23T04:43:52.050Z,17.80
2018-11-23T04:46:20.497Z,16.73
2018-11-23T04:48:48.972Z,15.30
2018-11-23T04:51:17.434Z,17.90
2018-11-23T04:53:45.875Z,16.00
2018-11-23T04:56:14.439Z,16.93
2018-11-23T04:58:42.857Z,16.70
2018-11-23T05:01:11.299Z,16.20
2018-11-23T05:03:39.812Z,16.33
2018-11-23T05:06:09.243Z,16.80
2018-11-23T05:08:37.694Z,16.03
2018-11-23T05:11:06.152Z,16.50
2018-11-23T05:13:34.597Z,16.87
2018-11-23T05:16:03.029Z,16.73
2018-11-23T05:18:31.504Z,16.10
2018-11-23T05:20:59.951Z,16.03
2018-11-23T05:23:28.402Z,16.93
2018-11-23T05:25:56.828Z,17.43
2018-11-23T05:28:25.280Z,16.33
2018-11-23T05:30:53.743Z,16.53
2018-11-23T05:33:22.181Z,16.23
2018-11-23T05:35:50.645Z,18.37
2018-11-23T05:38:19.100Z,17.67
2018-11-23T05:40:47.524Z,17.47
2018-11-23T05:43:15.992Z,18.70
2018-11-23T05:45:44.435Z,19.20
2018-11-23T05:48:12.898Z,19.57
2018-11-23T05:50:41.336Z,19.30
2018-11-23T05:53:09.797Z,18.17
2018-11-23T05:55:38.222Z,17.53
2018-11-23T05:58:06.676Z,18.13
2018-11-23T06:00:35.156Z,17.50
2018-11-23T06:03:03.618Z,17.83
2018-11-23T06:05:32.087Z,17.63
2018-11-23T06:08:00.552Z,16.40
2018-11-23T06:10:28.974Z,17.47
2018-11-23T06:12:57.424Z,17.27
2018-11-23T06:15:26.048Z,16.70
2018-11-23T06:17:54.613Z,18.23
2018-11-23T06:20:24.418Z,16.57
2018-11-23T06:22:53.536Z,17.93
2018-11-23T06:25:28.804Z,17.80
2018-11-23T06:27:57.371Z,17.90
2018-11-23T06:30:25.893Z,17.63
2018-11-23T06:32:59.972Z,19.03
2018-11-23T06:35:28.416Z,18.30
2018-11-23T06:37:56.929Z,18.37
2018-11-23T06:40:25.364Z,18.63
2018-11-23T06:42:53.891Z,18.10
2018-11-23T06:45:22.368Z,17.20
2018-11-23T06:47:50.835Z,20.27
2018-11-23T06:50:19.340Z,18.27
2018-11-23T06:52:47.792Z,18.03
2018-11-23T06:55:16.300Z,18.10
2018-11-23T06:57:44.757Z,18.60
2018-11-23T07:00:14.625Z,19.90
2018-11-23T07:02:43.905Z,22.77
2018-11-23T07:05:13.418Z,21.53
2018-11-23T07:07:41.955Z,21.93
2018-11-23T07:10:10.930Z,20.73
2018-11-23T07:12:39.845Z,19.40
2018-11-23T07:15:08.902Z,20.57
2018-11-23T07:17:37.445Z,20.77
2018-11-23T07:20:06.876Z,21.70
2018-11-23T07:22:36.348Z,21.90
2018-11-23T07:25:05.269Z,20.27
2018-11-23T07:27:33.816Z,19.83
2018-11-23T07:30:02.344Z,20.10
2018-11-23T07:32:30.863Z,19.80
2018-11-23T07:34:59.370Z,18.80
2018-11-23T07:37:27.824Z,19.57
2018-11-23T07:40:01.894Z,17.63
2018-11-23T07:42:31.392Z,18.87
2018-11-23T07:44:59.931Z,18.50
2018-11-23T07:47:28.400Z,17.90
2018-11-23T07:49:56.895Z,19.07
2018-11-23T07:52:25.360Z,18.33
2018-11-23T07:54:53.850Z,20.47
2018-11-23T07:57:22.332Z,18.50
2018-11-23T07:59:50.873Z,17.37
2018-11-23T08:02:19.415Z,18.97
2018-11-23T08:04:47.903Z,17.00
2018-11-23T08:07:16.618Z,17.10
2018-11-23T08:09:45.144Z,17.30
2018-11-23T08:12:13.604Z,17.00
2018-11-23T08:14:42.163Z,17.63
2018-11-23T08:17:10.732Z,16.60
2018-11-23T08:19:39.284Z,15.60
2018-11-23T08:22:07.754Z,17.43
2018-11-23T08:24:36.265Z,17.47
2018-11-23T08:27:04.846Z,17.47
2018-11-23T08:29:33.336Z,17.20
2018-11-23T08:32:01.768Z,18.27
2018-11-23T08:34:30.327Z,19.17
2018-11-23T08:36:58.843Z,18.50
2018-11-23T08:39:27.348Z,17.93
2018-11-23T08:41:55.803Z,19.53
2018-11-23T08:44:24.297Z,19.37
2018-11-23T08:46:52.799Z,17.87
2018-11-23T08:49:21.563Z,18.67
2018-11-23T08:51:50.445Z,18.37
2018-11-23T08:54:19.297Z,18.20
2018-11-23T08:56:48.225Z,19.23
2018-11-23T08:59:17.124Z,27.90
2018-11-23T09:01:46.039Z,21.20
2018-11-23T09:04:16.433Z,20.83
2018-11-23T09:06:44.950Z,23.75
2018-11-23T09:09:13.440Z,19.63
2018-11-23T09:11:42.040Z,20.80
2018-11-23T09:14:11.281Z,23.43
2018-11-23T09:16:39.797Z,20.73
2018-11-23T09:19:08.277Z,22.73
2018-11-23T09:21:36.758Z,21.53
2018-11-23T09:24:05.252Z,22.63
2018-11-23T09:26:33.715Z,22.10
2018-11-23T09:29:02.159Z,23.00
2018-11-23T09:31:30.616Z,21.43
2018-11-23T09:33:59.405Z,21.40
2018-11-23T09:36:28.377Z,21.13
2018-11-23T09:38:57.416Z,21.27
2018-11-23T09:41:26.336Z,19.97
2018-11-23T09:43:55.485Z,21.03
2018-11-23T09:46:24.354Z,21.27
2018-11-23T09:48:53.332Z,20.20
2018-11-23T09:51:22.297Z,21.93
2018-11-23T09:53:51.195Z,21.97
2018-11-23T09:56:20.090Z,20.50
2018-11-23T09:58:48.951Z,20.57
2018-11-23T10:01:17.791Z,20.33
2018-11-23T10:03:46.641Z,20.00
2018-11-23T10:06:15.728Z,19.90
2018-11-23T10:08:44.724Z,19.73
2018-11-23T10:11:13.670Z,20.63
2018-11-23T10:13:42.495Z,19.43
2018-11-23T10:16:11.398Z,17.77
2018-11-23T10:18:40.228Z,18.83
2018-11-23T10:21:09.256Z,18.93
2018-11-23T10:23:38.753Z,18.93
2018-11-23T10:26:07.749Z,19.13
2018-11-23T10:28:37.585Z,19.93
2018-11-23T10:31:06.588Z,18.57
2018-11-23T10:33:37.505Z,18.13
2018-11-23T10:36:08.218Z,18.53
2018-11-23T10:38:43.413Z,18.87
2018-11-23T10:41:12.421Z,19.93
2018-11-23T10:43:41.249Z,19.47
2018-11-23T10:46:10.106Z,20.20
2018-11-23T10:48:43.572Z,20.03
2018-11-23T10:51:12.381Z,19.47
2018-11-23T10:53:41.301Z,19.00
2018-11-23T10:56:13.018Z,18.27
2018-11-23T10:58:43.677Z,18.60
2018-11-23T11:01:19.931Z,18.90
2018-11-23T11:03:54.610Z,19.03
2018-11-23T11:06:33.122Z,18.77
2018-11-23T11:09:07.917Z,19.13
2018-11-23T11:11:37.000Z,19.10
2018-11-23T11:14:06.024Z,18.77
2018-11-23T11:16:35.413Z,20.43
2018-11-23T11:19:04.997Z,20.67
2018-11-23T11:21:34.089Z,20.63
2018-11-23T11:24:03.382Z,20.30
2018-11-23T11:26:32.215Z,20.57
2018-11-23T11:29:01.277Z,20.77
2018-11-23T11:31:30.133Z,19.67
2018-11-23T11:33:59.170Z,20.10
2018-11-23T11:36:28.057Z,20.50
2018-11-23T11:38:56.837Z,21.23
2018-11-23T11:41:25.696Z,20.80
2018-11-23T11:43:54.634Z,20.37
2018-11-23T11:46:23.442Z,20.97
2018-11-23T11:48:52.311Z,20.57
2018-11-23T11:51:21.153Z,21.73
2018-11-23T11:53:49.937Z,20.43
2018-11-23T11:56:19.811Z,20.50
2018-11-23T11:58:48.688Z,20.97
2018-11-23T12:01:17.524Z,20.67
2018-11-23T12:03:46.362Z,20.73
2018-11-23T12:06:15.221Z,20.80
2018-11-23T12:08:44.122Z,21.57
2018-11-23T12:11:13.597Z,19.83
2018-11-23T12:13:42.409Z,21.53
2018-11-23T12:16:11.512Z,20.77
2018-11-23T12:21:23.919Z,21.30
2018-11-23T12:23:53.119Z,21.77
2018-11-23T12:26:21.991Z,21.43
2018-11-23T12:28:53.131Z,21.50
2018-11-23T12:31:22.101Z,21.20
2018-11-23T12:33:52.080Z,22.60
2018-11-23T12:36:21.469Z,20.80
2018-11-23T12:38:52.436Z,20.47
2018-11-23T12:41:21.774Z,21.73
2018-11-23T12:43:51.581Z,20.30
2018-11-23T12:46:20.706Z,22.20
2018-11-23T12:50:16.540Z,20.43
2018-11-23T12:52:45.600Z,20.40
2018-11-23T12:55:15.143Z,20.97
2018-11-23T12:57:44.336Z,19.90
2018-11-23T13:00:19.806Z,21.70
2018-11-23T13:02:51.969Z,20.70
2018-11-23T13:05:22.215Z,20.33
2018-11-23T13:07:52.178Z,21.03
2018-11-23T13:10:22.740Z,21.37
2018-11-23T13:12:52.351Z,19.47
2018-11-23T13:15:21.353Z,20.80
2018-11-23T13:17:50.331Z,21.53
2018-11-23T13:20:19.162Z,20.90
2018-11-23T13:22:48.224Z,20.40
2018-11-23T13:25:18.760Z,19.67
2018-11-23T13:27:47.633Z,19.13
2018-11-23T13:30:20.138Z,20.07
2018-11-23T13:32:49.058Z,20.77
2018-11-23T13:35:18.749Z,22.50
2018-11-23T13:37:48.018Z,21.00
2018-11-23T13:40:18.290Z,21.23
2018-11-23T13:42:47.572Z,26.23
2018-11-23T13:45:19.026Z,23.57
2018-11-23T13:47:47.924Z,25.03
2018-11-23T13:50:19.047Z,28.33
2018-11-23T13:52:50.686Z,23.80
2018-11-23T13:55:19.591Z,28.70
2018-11-23T13:57:48.468Z,28.50
2018-11-23T14:00:19.505Z,31.83
2018-11-23T14:02:48.526Z,21.80
2018-11-23T14:05:18.642Z,24.53
2018-11-23T14:07:49.183Z,23.17
2018-11-23T14:10:19.509Z,22.33
2018-11-23T14:12:48.486Z,21.83
2018-11-23T14:15:19.609Z,21.70
2018-11-23T14:17:49.352Z,23.40
2018-11-23T14:20:19.012Z,22.97
2018-11-23T14:22:48.056Z,20.87
2018-11-23T14:25:18.393Z,23.63
2018-11-23T14:27:47.673Z,22.47
2018-11-23T14:30:20.442Z,22.10
2018-11-23T14:32:49.801Z,22.53
2018-11-23T14:35:26.666Z,22.00
2018-11-23T14:37:56.369Z,22.33
2018-11-23T14:40:25.323Z,21.80
2018-11-23T14:42:54.751Z,22.47
2018-11-23T14:45:26.692Z,21.80
2018-11-23T14:47:56.735Z,21.33
2018-11-23T14:50:27.425Z,22.03
2018-11-23T14:52:56.969Z,21.23
2018-11-23T14:55:26.392Z,20.60
2018-11-23T14:57:55.872Z,21.33
2018-11-23T15:00:28.426Z,20.07
2018-11-23T15:02:58.572Z,22.80
2018-11-23T15:05:27.538Z,21.73
2018-11-23T15:07:56.524Z,21.47
2018-11-23T15:10:26.590Z,22.50
2018-11-23T15:12:56.890Z,24.50
2018-11-23T15:15:28.348Z,22.63
2018-11-23T15:17:59.425Z,21.50
2018-11-23T15:20:33.612Z,22.47
2018-11-23T15:23:05.585Z,21.50
2018-11-23T15:25:34.677Z,23.13
2018-11-23T15:28:03.148Z,22.03
2018-11-23T15:30:33.668Z,23.90
2018-11-23T15:33:02.698Z,22.10
2018-11-23T15:35:32.870Z,22.97
2018-11-23T15:38:01.942Z,22.17
2018-11-23T15:40:31.811Z,23.20
2018-11-23T15:43:02.112Z,23.67
2018-11-23T15:45:31.956Z,22.67
2018-11-23T15:48:01.525Z,22.63
2018-11-23T15:50:31.859Z,23.73
2018-11-23T15:53:01.606Z,21.13
2018-11-23T15:55:33.066Z,20.37
2018-11-23T15:58:04.105Z,21.37
2018-11-23T16:00:34.252Z,23.03
2018-11-23T16:03:04.488Z,23.53
2018-11-23T16:05:35.669Z,24.17
2018-11-23T16:08:08.467Z,22.60
2018-11-23T16:10:38.088Z,22.87
2018-11-23T16:13:11.322Z,22.17
2018-11-23T16:15:37.768Z,21.57
2018-11-23T16:18:07.061Z,22.77
2018-11-23T16:20:38.224Z,23.43
2018-11-23T16:23:08.926Z,20.97
2018-11-23T16:25:38.272Z,20.20
2018-11-23T16:28:08.084Z,22.20
2018-11-23T16:30:39.294Z,20.07
2018-11-23T16:33:09.641Z,21.93
2018-11-23T16:35:41.055Z,23.20
2018-11-23T16:38:11.918Z,21.47
2018-11-23T16:40:42.355Z,22.93
2018-11-23T16:43:12.353Z,22.07
2018-11-23T16:45:41.957Z,22.23
2018-11-23T16:48:11.810Z,23.03
2018-11-23T16:50:40.893Z,22.70
2018-11-23T16:53:09.871Z,22.30
2018-11-23T16:55:38.840Z,22.60
2018-11-23T16:58:11.921Z,22.90
2018-11-23T17:00:44.145Z,21.93
2018-11-23T17:03:15.752Z,15.90
2018-11-23T17:05:46.180Z,14.10
2018-11-23T17:08:15.103Z,12.63
2018-11-23T17:10:43.923Z,11.80
2018-11-23T17:13:12.961Z,11.03
2018-11-23T17:15:41.924Z,11.63
2018-11-23T17:18:10.869Z,11.60
2018-11-23T17:20:40.154Z,11.67
2018-11-23T17:23:10.164Z,12.13
2018-11-23T17:25:40.341Z,12.30
2018-11-23T17:28:10.452Z,12.90
2018-11-23T17:30:40.105Z,15.07
2018-11-23T17:33:08.997Z,16.17
2018-11-23T17:35:37.842Z,15.40
2018-11-23T17:38:07.350Z,14.30
2018-11-23T17:40:40.883Z,13.93
2018-11-23T17:43:10.581Z,13.77
2018-11-23T17:45:40.405Z,14.70
2018-11-23T17:48:09.501Z,15.27
2018-11-23T17:50:39.416Z,13.93
2018-11-23T17:53:09.749Z,14.97
2018-11-23T17:55:38.756Z,15.10
2018-11-23T17:58:08.632Z,14.03
2018-11-23T18:00:39.297Z,13.93
2018-11-23T18:03:07.799Z,13.00
2018-11-23T18:05:36.702Z,13.77
2018-11-23T18:08:05.924Z,18.93
2018-11-23T18:10:35.385Z,16.83
2018-11-23T18:13:04.339Z,16.50
2018-11-23T18:15:34.295Z,16.30
2018-11-23T18:18:04.169Z,18.93
2018-11-23T18:20:33.703Z,18.37
2018-11-23T18:23:03.278Z,18.53
2018-11-23T18:25:35.901Z,17.47
2018-11-23T18:28:04.999Z,20.03
2018-11-23T18:30:34.362Z,16.97
2018-11-23T18:33:06.683Z,17.63
2018-11-23T18:35:35.631Z,14.93
2018-11-23T18:38:04.662Z,18.77
2018-11-23T18:40:37.283Z,15.30
2018-11-23T18:43:03.320Z,15.57
2018-11-23T18:45:32.162Z,15.97
2018-11-23T18:48:01.557Z,14.67
2018-11-23T18:50:32.297Z,14.07
2018-11-23T18:53:04.102Z,15.27
2018-11-23T18:55:34.788Z,14.63
2018-11-23T18:58:04.883Z,14.73
2018-11-23T19:00:34.718Z,15.60
2018-11-23T19:03:04.268Z,18.00
2018-11-23T19:05:33.137Z,17.77
2018-11-23T19:08:14.432Z,14.93
2018-11-23T19:10:43.316Z,12.47
2018-11-23T19:13:12.164Z,12.37
2018-11-23T19:15:43.796Z,11.93
2018-11-23T19:18:12.745Z,11.57
2018-11-23T19:20:41.629Z,10.53
2018-11-23T19:23:10.513Z,10.43
2018-11-23T19:25:39.347Z,10.07
2018-11-23T19:28:08.279Z,9.77
2018-11-23T19:30:37.091Z,9.90
2018-11-23T19:33:06.131Z,10.97
2018-11-23T19:35:34.992Z,10.10
2018-11-23T19:38:03.852Z,11.13
2018-11-23T19:40:32.694Z,10.37
2018-11-23T19:43:01.569Z,9.70
2018-11-23T19:48:11.276Z,8.83
2018-11-23T19:50:40.171Z,11.10
2018-11-23T19:53:10.247Z,9.93
2018-11-23T19:55:41.042Z,9.70
2018-11-23T19:58:11.544Z,10.33
2018-11-23T20:00:41.673Z,8.83
2018-11-23T20:03:11.322Z,10.23
2018-11-23T20:05:40.421Z,9.27
2018-11-23T20:08:09.333Z,9.27
2018-11-23T20:10:38.192Z,9.93
2018-11-23T20:13:07.017Z,10.17
2018-11-23T20:15:36.473Z,10.27
2018-11-23T20:18:05.953Z,9.27
2018-11-23T20:20:35.287Z,10.33
2018-11-23T20:23:04.244Z,9.87
2018-11-23T20:25:33.089Z,9.17
2018-11-23T20:28:02.112Z,8.97
2018-11-23T20:30:30.946Z,9.17
2018-11-23T20:33:00.477Z,10.40
2018-11-23T20:35:30.807Z,11.07
2018-11-23T20:38:00.608Z,10.50
2018-11-23T20:40:29.507Z,9.93
2018-11-23T20:42:58.765Z,9.33
2018-11-23T20:45:28.240Z,11.23
2018-11-23T20:47:57.079Z,10.80
2018-11-23T20:50:25.965Z,11.00
2018-11-23T20:52:55.148Z,11.70
2018-11-23T20:55:23.992Z,10.57
2018-11-23T20:57:52.843Z,10.37
2018-11-23T21:00:22.077Z,10.67
2018-11-23T21:02:51.873Z,10.63
2018-11-23T21:05:21.705Z,10.23
2018-11-23T21:07:50.960Z,10.53
2018-11-23T21:10:31.616Z,10.57
2018-11-23T21:13:00.487Z,10.40
2018-11-23T21:15:30.298Z,10.03
2018-11-23T21:18:01.824Z,10.30
2018-11-23T21:20:30.593Z,11.10
2018-11-23T21:22:59.435Z,10.87
2018-11-23T21:25:28.387Z,11.10
2018-11-23T21:27:57.241Z,10.60
2018-11-23T21:30:26.134Z,11.13
2018-11-23T21:32:55.886Z,10.67
2018-11-23T21:35:25.139Z,10.70
2018-11-23T21:37:54.020Z,11.20
2018-11-23T21:40:22.909Z,11.13
2018-11-23T21:42:51.871Z,10.90
2018-11-23T21:45:20.809Z,11.83
2018-11-23T21:47:49.641Z,11.33
2018-11-23T21:50:24.912Z,12.17
2018-11-23T21:52:48.158Z,10.93
2018-11-23T21:55:18.199Z,11.13
2018-11-23T21:57:47.032Z,11.63
2018-11-23T22:00:16.457Z,12.20
2018-11-23T22:02:45.465Z,11.73
2018-11-23T22:05:14.447Z,11.80
2018-11-23T22:07:43.293Z,11.53
2018-11-23T22:10:16.209Z,11.67
2018-11-23T22:12:45.118Z,13.13
2018-11-23T22:15:22.114Z,13.60
2018-11-23T22:17:52.061Z,12.33
2018-11-23T22:20:21.668Z,12.67
2018-11-23T22:22:50.554Z,12.07
2018-11-23T22:25:20.561Z,11.23
2018-11-23T22:27:49.564Z,12.10
2018-11-23T22:30:29.212Z,11.53
2018-11-23T22:32:59.122Z,11.17
2018-11-23T22:35:29.780Z,11.87
2018-11-23T22:37:58.627Z,11.87
2018-11-23T22:40:27.472Z,12.57
2018-11-23T22:42:57.519Z,12.57
2018-11-23T22:45:26.412Z,11.83
2018-11-23T22:47:55.249Z,11.83
2018-11-23T22:50:24.538Z,11.73
2018-11-23T22:52:53.379Z,11.87
2018-11-23T22:55:23.269Z,12.23
2018-11-23T22:57:53.946Z,12.27
2018-11-23T23:00:40.342Z,12.17
2018-11-23T23:03:09.429Z,11.17
2018-11-23T23:05:38.285Z,12.47
2018-11-23T23:08:07.264Z,12.17
2018-11-23T23:10:36.286Z,12.07
2018-11-23T23:13:05.987Z,13.27
2018-11-23T23:15:34.830Z,14.97
2018-11-23T23:18:03.685Z,14.60
2018-11-23T23:20:32.517Z,13.63
2018-11-23T23:23:01.366Z,13.17
2018-11-23T23:25:30.222Z,13.00
2018-11-23T23:27:59.132Z,12.83
2018-11-23T23:30:28.377Z,13.90
2018-11-23T23:32:57.445Z,16.60
2018-11-23T23:35:26.320Z,17.00
2018-11-23T23:37:55.181Z,15.00
2018-11-23T23:40:23.998Z,14.00
2018-11-23T23:42:52.990Z,15.20
2018-11-23T23:45:21.892Z,16.63
2018-11-23T23:47:50.793Z,17.23
2018-11-23T23:50:21.405Z,15.53
2018-11-23T23:52:50.868Z,17.40
2018-11-23T23:55:19.700Z,15.27
2018-11-23T23:57:48.793Z,15.47
